Hurlburt Field, FL (32544)

3:05 PM CDT on July 27, 2016 (GMT -0500)
Cobia Bay | | Change Station
Active Advisory: Coastal Hazard Statement

Elev 13 ft 30.41 °N, 86.74 °W | Updated 9 seconds ago

Scattered Clouds
Scattered Clouds
89.0 °F
Feels Like 106 °F
N
5.0
Wind Variable Wind from South
Gusts 10.0 mph

Today
High -- | Low -- °F
--% Chance of Precip.
Yesterday
High -- | Low -- °F
Precip. -- in
Pressure 30.05 in
Visibility 10.0 miles
Clouds Few 2700 ft
Scattered Clouds 6000 ft
Heat Index 106 °F
Dew Point 80 °F
Humidity 74%
Rainfall 0.00 in
Snow Depth Not available.
6:02 AM 7:43 PM
Last Quarter, 40% visible
METAR KHRT 271958Z 18011KT 10SM FEW027 SCT060 33/24 A3004 RMK AO2A SLP174 T03270235 $
Pressure 30.05 in
Visibility 10.0 miles
Clouds Few 2700 ft
Scattered Clouds 6000 ft
Heat Index 106 °F
Dew Point 80 °F
Humidity 74%
Rainfall 0.00 in
Snow Depth Not available.
6:02 AM 7:43 PM
Last Quarter, 40% visible
METAR KHRT 271958Z 18011KT 10SM FEW027 SCT060 33/24 A3004 RMK AO2A SLP174 T03270235 $

10-Day Weather Forecast

Almanac

Astronomy

Jul. 27, 2016 Rise Set
Actual Time
Civil Twilight
Nautical Twilight
Astronomical Twilight
Moon
Length of Visible Light
Length of Day
Tomorrow will be .
, % of the Moon is Illuminated

Today's Extremes

State Highs State Lows

Community

WunderPhotos

Upload Photos

1,927,931 photos uploaded!

WunderBlog® & News

Nearby

Air Quality

  Air Quality AQ Index Pollutant
Not available.

Snow Depth

Station Depth Elevation

Earthquake Activity

City Distance Mag. Time & Date
Minimum magnitude displayed is 2.5.

Coastal Water Temperatures

Place Temperature

Stations

Nearby Weather Stations

Station Location Temp. Windchill Dew Point Humidity Wind Precip. Elev Updated Type
                   

Watches & Warnings

Coastal Hazard Statement
Issued: 2:09 PM CDT Jul. 27, 2016 – National Weather Service

... High rip current risk remains in effect until 6 PM CDT this
evening...

* timing... through late this afternoon.

* Impacts... frequent life-threatening rip currents are expected.
The surf is dangerous for all levels of swimmers.

Precautionary/preparedness actions...

There is a high risk of rip currents.

Rip currents are life-threatening to anyone entering the surf. If
you become caught in a rip current... Yell for help. Remain
calm... do not exhaust yourself and stay afloat while waiting for
help. If you have to swim out of a rip current... swim parallel
to shore and back toward the beach when possible. Do not attempt
to swim directly against a rip current as you will tire quickly.